createdAt,value
2018-05-09T00:02:39.575Z,6.47
2018-05-09T00:06:12.139Z,6.23
2018-05-09T00:09:44.697Z,6.40
2018-05-09T00:13:17.263Z,6.60
2018-05-09T00:16:50.874Z,6.47
2018-05-09T00:20:24.196Z,6.43
2018-05-09T00:23:56.750Z,5.23
2018-05-09T00:27:30.081Z,6.93
2018-05-09T00:31:02.648Z,7.03
2018-05-09T00:34:35.199Z,6.77
2018-05-09T00:38:07.761Z,6.00
2018-05-09T00:41:41.121Z,7.83
2018-05-09T00:45:13.528Z,9.00
2018-05-09T00:48:45.992Z,7.93
2018-05-09T00:52:18.478Z,7.30
2018-05-09T00:55:51.716Z,7.77
2018-05-09T00:59:24.191Z,7.67
2018-05-09T01:02:56.672Z,6.53
2018-05-09T01:06:29.143Z,7.40
2018-05-09T01:10:01.620Z,7.90
2018-05-09T01:13:34.096Z,6.60
2018-05-09T01:17:06.568Z,7.03
2018-05-09T01:20:39.806Z,7.17
2018-05-09T01:24:12.298Z,8.23
2018-05-09T01:27:44.764Z,6.07
2018-05-09T01:31:17.248Z,7.50
2018-05-09T01:34:49.711Z,8.80
2018-05-09T01:38:22.192Z,8.50
2018-05-09T01:41:54.672Z,9.20
2018-05-09T01:45:27.143Z,8.00
2018-05-09T01:49:00.385Z,9.00
2018-05-09T01:52:32.864Z,7.80
2018-05-09T01:56:05.331Z,6.73
2018-05-09T01:59:37.808Z,8.50
2018-05-09T02:03:10.280Z,9.20
2018-05-09T02:06:42.762Z,8.70
2018-05-09T02:10:15.229Z,8.67
2018-05-09T02:13:48.480Z,9.47
2018-05-09T02:17:20.952Z,8.43
2018-05-09T02:20:53.425Z,9.10
2018-05-09T02:24:25.899Z,8.83
2018-05-09T02:27:58.372Z,8.40
2018-05-09T02:31:30.837Z,7.97
2018-05-09T02:35:04.084Z,8.90
2018-05-09T02:38:37.724Z,7.87
2018-05-09T02:42:10.984Z,9.33
2018-05-09T02:45:43.454Z,8.57
2018-05-09T02:49:15.964Z,7.93
2018-05-09T02:52:48.447Z,9.67
2018-05-09T02:56:20.921Z,9.07
2018-05-09T02:59:54.581Z,7.93
2018-05-09T03:03:27.109Z,9.60
2018-05-09T03:07:00.224Z,9.00
2018-05-09T03:10:32.697Z,8.70
2018-05-09T03:14:05.188Z,9.53
2018-05-09T03:17:37.660Z,11.00
2018-05-09T03:21:10.161Z,10.43
2018-05-09T03:24:42.704Z,8.13
2018-05-09T03:28:15.116Z,9.50
2018-05-09T03:31:47.614Z,8.90
2018-05-09T03:35:20.872Z,9.70
2018-05-09T03:38:53.353Z,10.67
2018-05-09T03:42:25.844Z,9.63
2018-05-09T03:45:58.487Z,9.70
2018-05-09T03:49:30.988Z,9.53
2018-05-09T03:53:03.475Z,10.30
2018-05-09T03:56:35.948Z,9.60
2018-05-09T04:00:08.429Z,9.47
2018-05-09T04:03:52.708Z,9.63
2018-05-09T04:07:36.881Z,8.33
2018-05-09T04:11:09.364Z,8.07
2018-05-09T04:14:42.271Z,9.13
2018-05-09T04:18:14.780Z,10.43
2018-05-09T04:21:48.032Z,9.27
2018-05-09T04:25:20.545Z,9.43
2018-05-09T04:28:53.044Z,9.00
2018-05-09T04:32:26.320Z,10.67
2018-05-09T04:35:58.796Z,9.70
2018-05-09T04:39:31.272Z,10.20
2018-05-09T04:43:03.756Z,10.70
2018-05-09T04:46:36.238Z,11.37
2018-05-09T04:50:08.729Z,10.17
2018-05-09T04:53:41.196Z,11.13
2018-05-09T04:57:13.684Z,10.50
2018-05-09T05:00:46.168Z,10.83
2018-05-09T05:04:18.647Z,9.40
2018-05-09T05:07:51.132Z,10.67
2018-05-09T05:11:23.615Z,11.00
2018-05-09T05:14:56.097Z,12.20
2018-05-09T05:18:28.568Z,11.17
2018-05-09T05:22:01.064Z,11.00
2018-05-09T05:25:33.556Z,12.00
2018-05-09T05:29:06.814Z,11.10
2018-05-09T05:32:39.307Z,9.83
2018-05-09T05:36:11.780Z,11.10
2018-05-09T05:39:44.273Z,11.63
2018-05-09T05:43:16.743Z,11.40
2018-05-09T05:46:49.234Z,10.63
2018-05-09T05:50:21.756Z,11.57
2018-05-09T05:53:55.009Z,11.53
2018-05-09T05:57:27.487Z,11.80
2018-05-09T06:00:59.984Z,11.00
2018-05-09T06:04:32.467Z,11.10
2018-05-09T06:08:04.983Z,10.77
2018-05-09T06:11:37.440Z,11.33
2018-05-09T06:15:09.919Z,10.57
2018-05-09T06:18:42.401Z,11.00
2018-05-09T06:22:14.872Z,10.23
2018-05-09T06:25:47.364Z,10.30
2018-05-09T06:29:19.848Z,8.90
2018-05-09T06:32:52.371Z,9.77
2018-05-09T06:36:24.820Z,8.90
2018-05-09T06:39:57.292Z,9.30
2018-05-09T06:43:29.780Z,11.00
2018-05-09T06:47:02.249Z,9.33
2018-05-09T06:50:34.743Z,10.57
2018-05-09T06:54:07.221Z,8.90
2018-05-09T06:57:39.712Z,10.53
2018-05-09T07:01:12.185Z,9.13
2018-05-09T07:04:44.668Z,10.70
2018-05-09T07:08:17.153Z,10.43
2018-05-09T07:11:49.623Z,10.43
2018-05-09T07:15:22.107Z,10.00
2018-05-09T07:18:54.595Z,10.47
2018-05-09T07:22:27.086Z,9.17
2018-05-09T07:25:59.567Z,10.80
2018-05-09T07:29:32.053Z,10.63
2018-05-09T07:33:04.544Z,10.63
2018-05-09T07:36:37.796Z,10.10
2018-05-09T07:40:10.280Z,10.40
2018-05-09T07:43:42.767Z,10.73
2018-05-09T07:47:15.249Z,9.63
2018-05-09T07:50:47.726Z,9.60
2018-05-09T07:54:20.224Z,8.90
2018-05-09T07:57:52.707Z,11.37
2018-05-09T08:01:25.220Z,9.90
2018-05-09T08:04:57.676Z,10.17
2018-05-09T08:08:30.163Z,10.57
2018-05-09T08:12:02.640Z,9.40
2018-05-09T08:15:35.114Z,11.03
2018-05-09T08:19:07.599Z,10.63
2018-05-09T08:22:40.769Z,10.97
2018-05-09T08:26:13.265Z,11.40
2018-05-09T08:29:45.749Z,10.47
2018-05-09T08:33:18.229Z,9.07
2018-05-09T08:36:50.712Z,10.20
2018-05-09T08:40:23.183Z,8.50
2018-05-09T08:43:55.686Z,10.63
2018-05-09T08:47:28.174Z,9.47
2018-05-09T08:51:00.652Z,8.97
2018-05-09T08:54:33.125Z,7.97
2018-05-09T08:58:05.596Z,8.10
2018-05-09T09:01:38.077Z,8.20
2018-05-09T09:05:10.557Z,8.87
2018-05-09T09:08:43.045Z,7.83
2018-05-09T09:12:15.533Z,7.30
2018-05-09T09:15:48.025Z,8.20
2018-05-09T09:19:20.502Z,9.57
2018-05-09T09:22:52.983Z,9.20
2018-05-09T09:26:25.465Z,8.37
2018-05-09T09:29:57.946Z,8.40
2018-05-09T09:33:30.413Z,8.40
2018-05-09T09:37:02.901Z,9.40
2018-05-09T09:40:35.378Z,9.13
2018-05-09T09:44:07.840Z,9.10
2018-05-09T09:47:40.329Z,8.60
2018-05-09T09:51:12.817Z,11.63
2018-05-09T09:54:45.307Z,9.23
2018-05-09T09:58:17.768Z,7.73
2018-05-09T10:01:50.253Z,7.77
2018-05-09T10:05:22.728Z,7.80
2018-05-09T10:08:55.206Z,7.30
2018-05-09T10:12:27.681Z,7.50
2018-05-09T10:16:00.181Z,6.90
2018-05-09T10:19:32.642Z,7.20
2018-05-09T10:23:05.884Z,7.30
2018-05-09T10:26:38.361Z,7.70
2018-05-09T10:30:10.836Z,7.47
2018-05-09T10:33:43.304Z,8.37
2018-05-09T10:37:15.783Z,6.87
2018-05-09T10:40:48.277Z,8.47
2018-05-09T10:44:20.773Z,7.20
2018-05-09T10:47:53.236Z,7.67
2018-05-09T10:51:25.717Z,6.30
2018-05-09T10:54:58.197Z,6.13
2018-05-09T10:58:30.676Z,7.07
2018-05-09T11:02:03.147Z,7.73
2018-05-09T11:05:35.634Z,5.37
2018-05-09T11:09:08.112Z,6.40
2018-05-09T11:12:40.586Z,5.63
2018-05-09T11:16:13.068Z,6.77
2018-05-09T11:19:45.550Z,6.03
2018-05-09T11:23:18.035Z,5.67
2018-05-09T11:26:50.500Z,6.10
2018-05-09T11:30:23.000Z,5.40
2018-05-09T11:33:55.483Z,5.70
2018-05-09T11:37:28.010Z,4.60
2018-05-09T11:41:00.463Z,5.17
2018-05-09T11:44:32.947Z,6.37
2018-05-09T11:48:05.434Z,5.33
2018-05-09T11:51:37.913Z,4.90
2018-05-09T11:55:10.394Z,5.40
2018-05-09T11:58:42.906Z,5.20
2018-05-09T12:02:15.428Z,5.83
2018-05-09T12:05:47.884Z,5.00
2018-05-09T12:09:20.373Z,5.23
2018-05-09T12:12:52.862Z,4.80
2018-05-09T12:16:26.092Z,4.60
2018-05-09T12:19:58.570Z,5.57
2018-05-09T12:23:31.044Z,4.10
2018-05-09T12:27:03.532Z,5.00
2018-05-09T12:30:36.033Z,6.87
2018-05-09T12:34:08.512Z,5.30
2018-05-09T12:37:40.994Z,4.80
2018-05-09T12:41:13.462Z,5.00
2018-05-09T12:44:45.954Z,5.10
2018-05-09T12:48:18.430Z,5.27
2018-05-09T12:51:50.909Z,4.60
2018-05-09T12:55:23.388Z,5.33
2018-05-09T12:58:55.897Z,5.40
2018-05-09T13:02:28.376Z,4.43
2018-05-09T13:06:00.849Z,4.57
2018-05-09T13:09:33.335Z,4.00
2018-05-09T13:13:05.821Z,3.80
2018-05-09T13:16:38.321Z,4.97
2018-05-09T13:20:10.797Z,4.30
2018-05-09T13:23:43.284Z,4.50
2018-05-09T13:27:15.763Z,4.80
2018-05-09T13:30:48.224Z,4.80
2018-05-09T13:34:20.708Z,5.20
2018-05-09T13:37:53.215Z,4.93
2018-05-09T13:41:25.924Z,4.90
2018-05-09T13:44:58.396Z,5.17
2018-05-09T13:48:30.872Z,4.43
2018-05-09T13:52:03.373Z,5.10
2018-05-09T13:55:35.851Z,4.87
2018-05-09T13:59:08.333Z,5.00
2018-05-09T14:02:40.820Z,5.03
2018-05-09T14:06:13.296Z,4.20
2018-05-09T14:09:45.837Z,4.63
2018-05-09T14:13:19.032Z,4.30
2018-05-09T14:16:51.508Z,5.00
2018-05-09T14:20:23.982Z,4.60
2018-05-09T14:23:56.473Z,4.77
2018-05-09T14:27:28.962Z,4.93
2018-05-09T14:31:01.445Z,5.37
2018-05-09T14:34:33.921Z,5.83
2018-05-09T14:38:06.401Z,4.70
2018-05-09T14:41:38.899Z,4.30
2018-05-09T14:45:11.386Z,5.20
2018-05-09T14:48:43.856Z,4.87
2018-05-09T14:52:16.342Z,4.47
2018-05-09T14:55:48.829Z,4.97
2018-05-09T14:59:21.317Z,4.77
2018-05-09T15:02:53.784Z,5.63
2018-05-09T15:06:26.265Z,5.03
2018-05-09T15:09:58.812Z,5.30
2018-05-09T15:13:41.570Z,3.97
2018-05-09T15:17:14.065Z,4.30
2018-05-09T15:20:46.544Z,3.80
2018-05-09T15:24:19.020Z,4.77
2018-05-09T15:27:51.504Z,5.67
2018-05-09T15:31:23.984Z,4.77
2018-05-09T15:34:56.463Z,5.00
2018-05-09T15:38:28.942Z,5.20
2018-05-09T15:42:01.429Z,5.80
2018-05-09T15:45:33.911Z,5.13
2018-05-09T15:49:06.402Z,4.57
2018-05-09T15:52:38.888Z,5.40
2018-05-09T15:56:11.377Z,5.37
2018-05-09T15:59:43.882Z,5.40
2018-05-09T16:03:16.350Z,6.00
2018-05-09T16:06:48.844Z,4.80
2018-05-09T16:10:22.122Z,6.33
2018-05-09T16:13:54.593Z,5.13
2018-05-09T16:17:27.073Z,5.40
2018-05-09T16:20:59.546Z,4.97
2018-05-09T16:24:37.984Z,5.63
2018-05-09T16:28:11.140Z,4.00
2018-05-09T16:31:43.620Z,5.27
2018-05-09T16:35:16.107Z,5.17
2018-05-09T16:38:49.430Z,4.77
2018-05-09T16:42:21.912Z,4.83
2018-05-09T16:45:54.392Z,4.37
2018-05-09T16:49:26.931Z,4.07
2018-05-09T16:52:59.408Z,3.97
2018-05-09T16:56:31.884Z,4.10
2018-05-09T17:00:05.129Z,5.00
2018-05-09T17:03:37.615Z,5.23
2018-05-09T17:07:10.108Z,5.40
2018-05-09T17:10:42.608Z,4.60
2018-05-09T17:14:15.094Z,4.80
2018-05-09T17:17:47.580Z,4.17
2018-05-09T17:21:34.203Z,3.77
2018-05-09T17:25:08.371Z,3.77
2018-05-09T17:28:41.725Z,4.10
2018-05-09T17:32:14.215Z,4.47
2018-05-09T17:35:47.388Z,4.57
2018-05-09T17:39:19.873Z,4.33
2018-05-09T17:42:52.356Z,5.40
2018-05-09T17:46:24.821Z,5.00
2018-05-09T17:49:57.305Z,5.87
2018-05-09T17:53:29.802Z,5.60
2018-05-09T17:57:02.288Z,5.40
2018-05-09T18:00:34.776Z,4.83
2018-05-09T18:04:11.270Z,7.00
2018-05-09T18:07:44.520Z,5.43
2018-05-09T18:11:16.993Z,6.03
2018-05-09T18:14:49.520Z,5.90
2018-05-09T18:18:21.986Z,5.17
2018-05-09T18:21:54.473Z,5.23
2018-05-09T18:25:26.953Z,6.60
2018-05-09T18:28:59.430Z,5.60
2018-05-09T18:32:31.917Z,5.07
2018-05-09T18:36:04.384Z,5.73
2018-05-09T18:39:36.868Z,5.40
2018-05-09T18:43:09.352Z,5.50
2018-05-09T18:46:41.836Z,5.27
2018-05-09T18:50:14.309Z,5.07
2018-05-09T18:53:46.788Z,4.63
2018-05-09T18:57:19.280Z,5.00
2018-05-09T19:00:51.765Z,5.10
2018-05-09T19:04:24.253Z,5.53
2018-05-09T19:07:56.765Z,4.40
2018-05-09T19:11:30.018Z,5.00
2018-05-09T19:15:02.499Z,5.07
2018-05-09T19:18:34.981Z,4.30
2018-05-09T19:22:07.722Z,4.83
2018-05-09T19:25:40.229Z,4.20
2018-05-09T19:29:12.702Z,5.00
2018-05-09T19:32:45.184Z,5.13
2018-05-09T19:36:17.693Z,4.27
2018-05-09T19:39:50.184Z,5.30
2018-05-09T19:43:22.710Z,5.10
2018-05-09T19:46:56.013Z,5.07
2018-05-09T19:50:28.511Z,5.33
2018-05-09T19:54:00.999Z,5.13
2018-05-09T19:57:33.476Z,6.80
2018-05-09T20:01:05.976Z,6.40
2018-05-09T20:04:38.492Z,6.17
2018-05-09T20:08:10.986Z,6.00
2018-05-09T20:11:44.236Z,6.03
2018-05-09T20:15:16.725Z,6.60
2018-05-09T20:18:49.188Z,6.47
2018-05-09T20:22:21.667Z,5.90
2018-05-09T20:25:54.148Z,5.93
2018-05-09T20:29:26.624Z,7.87
2018-05-09T20:32:59.100Z,5.80
2018-05-09T20:36:31.581Z,6.13
2018-05-09T20:40:04.068Z,5.10
2018-05-09T20:43:36.550Z,6.83
2018-05-09T20:47:09.024Z,6.73
2018-05-09T20:50:42.282Z,5.70
2018-05-09T20:54:14.792Z,6.83
2018-05-09T20:57:47.261Z,7.43
2018-05-09T21:01:31.449Z,7.00
2018-05-09T21:05:03.945Z,8.90
2018-05-09T21:08:36.429Z,8.73
2018-05-09T21:12:09.693Z,8.47
2018-05-09T21:15:42.172Z,7.00
2018-05-09T21:19:14.653Z,7.47
2018-05-09T21:22:47.125Z,7.37
2018-05-09T21:26:19.601Z,7.47
2018-05-09T21:29:52.093Z,6.50
2018-05-09T21:33:24.561Z,7.60
2018-05-09T21:36:57.059Z,7.50
2018-05-09T21:40:29.540Z,8.83
2018-05-09T21:44:02.017Z,7.37
2018-05-09T21:47:34.488Z,8.10
2018-05-09T21:51:06.981Z,8.50
2018-05-09T21:54:39.452Z,7.33
2018-05-09T21:58:11.917Z,6.63
2018-05-09T22:01:44.396Z,8.50
2018-05-09T22:05:16.872Z,7.83
2018-05-09T22:08:49.352Z,7.37
2018-05-09T22:12:21.825Z,7.50
2018-05-09T22:15:54.300Z,8.60
2018-05-09T22:19:26.785Z,9.13
2018-05-09T22:22:59.256Z,8.90
2018-05-09T22:26:31.743Z,9.80
2018-05-09T22:30:04.228Z,10.90
2018-05-09T22:33:36.724Z,9.60
2018-05-09T22:37:09.193Z,9.30
2018-05-09T22:40:41.809Z,8.27
2018-05-09T22:44:14.297Z,9.93
2018-05-09T22:47:46.769Z,8.80
2018-05-09T22:51:19.240Z,10.47
2018-05-09T22:54:51.736Z,11.20
2018-05-09T22:58:24.223Z,9.00
2018-05-09T23:01:56.693Z,7.70
2018-05-09T23:05:29.190Z,9.43
2018-05-09T23:09:01.676Z,10.97
2018-05-09T23:12:34.174Z,10.00
2018-05-09T23:16:07.405Z,8.57
2018-05-09T23:19:39.903Z,9.80
2018-05-09T23:23:12.382Z,9.87
2018-05-09T23:26:44.860Z,10.10
2018-05-09T23:30:17.348Z,9.87
2018-05-09T23:33:49.823Z,9.40
2018-05-09T23:37:22.304Z,9.20
2018-05-09T23:40:54.789Z,11.63
2018-05-09T23:44:27.267Z,9.37
2018-05-09T23:47:59.761Z,11.53
2018-05-09T23:51:32.232Z,9.90
2018-05-09T23:55:04.724Z,10.60
2018-05-09T23:58:37.204Z,12.60
